Time;durP1;ratioP1;P1;durP2;ratioP2;P2;SDS_P1;SDS_P2;PMS_P1;PMS_P2;Temp;Humidity;BMP_temperature;BMP_pressure;BME280_temperature;BME280_humidity;BME280_pressure;Samples;Min_cycle;Max_cycle;Signal;HPM_P1;HPM_P2
2022/09/28 00:01:58;;;;;;;2.22;1.20;;;8.90;99.90;;;;;;5053480;28;20055;-71
2022/09/28 00:04:23;;;;;;;2.72;0.75;;;8.90;99.90;;;;;;5065359;28;20398;-71
2022/09/28 00:06:49;;;;;;;2.70;0.95;;;8.90;99.90;;;;;;5092386;27;20409;-71
2022/09/28 00:09:16;;;;;;;2.10;1.05;;;8.80;99.90;;;;;;5092071;27;20032;-70
2022/09/28 00:11:42;;;;;;;2.60;1.23;;;8.80;99.90;;;;;;5052264;28;20043;-70
2022/09/28 00:14:09;;;;;;;1.50;0.88;;;8.80;99.90;;;;;;5064544;28;20144;-71
2022/09/28 00:16:38;;;;;;;1.80;1.13;;;8.80;99.90;;;;;;5062291;28;20035;-71
2022/09/28 00:19:05;;;;;;;4.90;1.38;;;8.80;99.90;;;;;;5062881;28;20071;-71
2022/09/28 00:21:33;;;;;;;2.38;1.15;;;8.90;99.90;;;;;;5065181;28;20047;-70
2022/09/28 00:24:16;;;;;;;3.45;1.10;;;8.80;99.90;;;;;;5055655;28;20056;-71
2022/09/28 00:26:56;;;;;;;2.50;1.42;;;8.90;99.90;;;;;;5061299;28;20635;-71
2022/09/28 00:29:25;;;;;;;2.80;1.45;;;8.90;99.90;;;;;;5065429;28;20790;-70
2022/09/28 00:31:55;;;;;;;3.70;1.45;;;8.90;99.90;;;;;;5078417;28;20157;-71
2022/09/28 00:34:21;;;;;;;4.05;1.73;;;8.80;99.90;;;;;;5055986;28;20041;-70
2022/09/28 00:36:47;;;;;;;2.65;1.23;;;8.90;99.90;;;;;;5067373;28;20052;-70
2022/09/28 00:39:14;;;;;;;3.67;1.65;;;8.90;99.90;;;;;;5087408;27;20047;-70
2022/09/28 00:41:40;;;;;;;2.67;1.42;;;8.90;99.90;;;;;;5071207;28;20067;-70
2022/09/28 00:44:24;;;;;;;3.15;1.65;;;8.90;99.90;;;;;;5062345;28;20405;-70
2022/09/28 00:46:57;;;;;;;3.40;1.50;;;8.90;99.90;;;;;;5047228;28;20067;-70
2022/09/28 00:49:49;;;;;;;2.25;1.17;;;8.90;99.90;;;;;;5097058;27;20471;-70
2022/09/28 00:52:21;;;;;;;2.00;1.08;;;8.90;99.90;;;;;;5061896;28;20118;-70
2022/09/28 00:54:49;;;;;;;5.50;1.15;;;8.90;99.90;;;;;;5086995;27;20131;-70
2022/09/28 00:57:15;;;;;;;2.90;1.15;;;8.90;99.90;;;;;;5066113;28;20463;-70
2022/09/28 00:59:42;;;;;;;3.38;1.50;;;8.90;99.90;;;;;;5062769;28;20057;-70
2022/09/28 01:02:09;;;;;;;2.58;1.50;;;8.90;99.90;;;;;;5063993;28;20044;-70
2022/09/28 01:04:36;;;;;;;3.22;1.50;;;8.90;99.90;;;;;;5057304;28;21569;-70
2022/09/28 01:07:02;;;;;;;3.03;1.35;;;8.90;99.90;;;;;;5069467;28;20059;-71
2022/09/28 01:09:29;;;;;;;3.25;1.58;;;8.90;99.90;;;;;;5044812;28;20166;-70
2022/09/28 01:11:54;;;;;;;3.17;1.25;;;8.90;99.90;;;;;;5041243;28;20050;-70
2022/09/28 01:14:24;;;;;;;3.38;1.30;;;8.90;99.90;;;;;;5043800;28;20036;-70
2022/09/28 01:17:23;;;;;;;2.97;1.38;;;8.90;99.90;;;;;;5061596;28;20059;-70
2022/09/28 01:20:25;;;;;;;4.05;1.90;;;8.80;99.90;;;;;;5036077;28;20055;-70
2022/09/28 01:23:16;;;;;;;2.55;1.55;;;8.80;99.90;;;;;;5060976;28;20089;-70
2022/09/28 01:26:16;;;;;;;2.75;1.65;;;8.80;99.90;;;;;;5057135;28;20052;-70
2022/09/28 01:28:43;;;;;;;4.13;1.60;;;8.70;99.90;;;;;;5063515;28;20458;-70
2022/09/28 01:31:11;;;;;;;3.30;2.03;;;8.70;99.90;;;;;;5061499;28;20551;-71
2022/09/28 01:33:48;;;;;;;4.40;2.10;;;8.70;99.90;;;;;;5066804;28;20044;-70
2022/09/28 01:36:24;;;;;;;4.05;1.95;;;8.70;99.90;;;;;;5063585;28;20751;-71
2022/09/28 01:38:54;;;;;;;7.82;1.48;;;8.60;99.90;;;;;;5061047;28;20040;-70
2022/09/28 01:41:22;;;;;;;3.90;1.85;;;8.60;99.90;;;;;;5054095;28;20356;-71
2022/09/28 01:43:53;;;;;;;3.67;1.70;;;8.60;99.90;;;;;;5069245;28;20041;-70
2022/09/28 01:46:22;;;;;;;3.08;1.77;;;8.60;99.90;;;;;;5056223;28;20069;-71
2022/09/28 01:48:57;;;;;;;3.90;1.73;;;8.60;99.90;;;;;;5081871;28;20040;-71
2022/09/28 01:51:45;;;;;;;4.75;2.25;;;8.60;99.90;;;;;;5091308;27;20358;-70
2022/09/28 01:54:24;;;;;;;4.55;2.28;;;8.60;99.90;;;;;;5067751;28;20525;-71
2022/09/28 01:57:11;;;;;;;2.95;1.50;;;8.50;99.90;;;;;;5073715;28;20169;-70
2022/09/28 01:59:43;;;;;;;2.72;1.77;;;8.60;99.90;;;;;;5058956;28;20039;-70
2022/09/28 02:02:13;;;;;;;3.10;1.45;;;8.60;99.90;;;;;;5048867;28;20478;-70
2022/09/28 02:04:47;;;;;;;4.47;2.10;;;8.60;99.90;;;;;;5055985;28;20105;-70
2022/09/28 02:07:45;;;;;;;1.55;0.88;;;8.60;99.90;;;;;;5058367;28;20060;-70
2022/09/28 02:10:22;;;;;;;3.40;1.23;;;8.60;99.90;;;;;;5089770;27;20482;-71
2022/09/28 02:12:55;;;;;;;3.10;1.23;;;8.50;99.90;;;;;;5055122;28;20115;-71
2022/09/28 02:15:29;;;;;;;2.28;1.60;;;8.50;99.90;;;;;;5085853;28;20098;-70
2022/09/28 02:17:55;;;;;;;2.60;1.50;;;8.50;99.90;;;;;;5057846;28;20044;-70
2022/09/28 02:20:23;;;;;;;2.85;1.67;;;8.50;99.90;;;;;;5069245;28;20048;-70
2022/09/28 02:22:52;;;;;;;1.65;0.93;;;8.50;99.90;;;;;;5056938;28;20040;-70
2022/09/28 02:25:39;;;;;;;2.50;1.20;;;8.50;99.90;;;;;;5068020;28;20048;-70
2022/09/28 02:28:14;;;;;;;3.08;1.67;;;8.50;99.90;;;;;;5052491;28;20036;-71
2022/09/28 02:30:42;;;;;;;2.53;1.30;;;8.50;99.90;;;;;;5067979;28;20120;-71
2022/09/28 02:33:16;;;;;;;2.53;1.38;;;8.50;99.90;;;;;;5068971;28;20038;-70
2022/09/28 02:35:42;;;;;;;2.88;1.50;;;8.50;99.90;;;;;;5076544;28;20128;-70
2022/09/28 02:38:12;;;;;;;2.35;1.33;;;8.60;99.90;;;;;;5057829;28;20143;-70
2022/09/28 02:40:38;;;;;;;2.00;1.25;;;8.50;99.90;;;;;;5056618;28;20082;-71
2022/09/28 02:43:26;;;;;;;2.63;1.63;;;8.50;99.90;;;;;;5064766;28;20092;-70
2022/09/28 02:46:17;;;;;;;1.70;1.00;;;8.50;99.90;;;;;;5040886;28;20037;-71
2022/09/28 02:48:58;;;;;;;4.10;1.83;;;8.50;99.90;;;;;;5061403;28;20129;-71
2022/09/28 02:51:45;;;;;;;2.63;1.50;;;8.50;99.90;;;;;;5058328;28;20115;-70
2022/09/28 02:54:46;;;;;;;3.05;1.73;;;8.40;99.90;;;;;;5090925;28;20505;-71
2022/09/28 02:57:18;;;;;;;3.20;1.58;;;8.40;99.90;;;;;;5089818;28;20052;-70
2022/09/28 02:59:51;;;;;;;2.78;1.70;;;8.40;99.90;;;;;;5061231;28;20056;-70
2022/09/28 03:02:32;;;;;;;3.45;1.92;;;8.30;99.90;;;;;;5101456;27;20044;-70
2022/09/28 03:05:19;;;;;;;3.22;1.27;;;8.30;99.90;;;;;;5062232;28;20118;-70
2022/09/28 03:07:45;;;;;;;3.28;1.40;;;8.30;99.90;;;;;;5070808;28;20041;-71
2022/09/28 03:10:32;;;;;;;4.03;1.83;;;8.20;99.90;;;;;;5064207;28;20032;-70
2022/09/28 03:12:59;;;;;;;4.13;1.80;;;8.20;99.90;;;;;;5069305;28;20394;-71
2022/09/28 03:15:27;;;;;;;4.25;1.98;;;8.20;99.90;;;;;;5067486;28;20055;-71
2022/09/28 03:17:53;;;;;;;2.90;1.70;;;8.20;99.90;;;;;;5098921;27;20471;-70
2022/09/28 03:20:19;;;;;;;4.05;1.73;;;8.20;99.90;;;;;;5063581;28;20083;-70
2022/09/28 03:22:45;;;;;;;3.28;1.92;;;8.10;99.90;;;;;;5067889;28;20040;-71
2022/09/28 03:25:11;;;;;;;2.30;1.50;;;8.20;99.90;;;;;;5088991;27;20044;-71
2022/09/28 03:27:37;;;;;;;3.40;1.20;;;8.10;99.90;;;;;;5101145;27;20161;-71
2022/09/28 03:30:04;;;;;;;2.97;1.52;;;8.10;99.90;;;;;;5061331;28;20055;-71
2022/09/28 03:32:29;;;;;;;2.60;1.30;;;8.10;99.90;;;;;;5049246;28;20033;-70
2022/09/28 03:34:55;;;;;;;2.58;1.20;;;8.10;99.90;;;;;;5054026;28;20040;-70
2022/09/28 03:37:21;;;;;;;3.17;1.70;;;8.00;99.90;;;;;;5064212;28;20040;-71
2022/09/28 03:39:47;;;;;;;2.08;1.00;;;8.00;99.90;;;;;;5070939;28;20146;-71
2022/09/28 03:42:13;;;;;;;1.77;1.17;;;8.00;99.90;;;;;;5066227;28;20033;-70
2022/09/28 03:44:38;;;;;;;3.00;1.42;;;8.00;99.90;;;;;;5043410;28;20053;-71
2022/09/28 03:47:07;;;;;;;1.25;0.80;;;7.90;99.90;;;;;;5061308;28;20683;-70
2022/09/28 03:49:32;;;;;;;1.33;0.90;;;7.90;99.90;;;;;;5063470;28;20081;-71
2022/09/28 03:51:58;;;;;;;1.95;1.20;;;7.90;99.90;;;;;;5093261;27;20032;-71
2022/09/28 03:54:23;;;;;;;1.73;0.95;;;7.80;99.90;;;;;;5076725;28;20455;-71
2022/09/28 03:56:50;;;;;;;1.50;1.05;;;7.90;99.90;;;;;;5060097;28;20044;-71
2022/09/28 03:59:16;;;;;;;2.38;1.10;;;7.80;99.90;;;;;;5072779;28;20119;-71
2022/09/28 04:01:42;;;;;;;1.55;0.90;;;7.80;99.90;;;;;;5050877;28;22272;-71
2022/09/28 04:04:11;;;;;;;1.58;0.77;;;7.80;99.90;;;;;;5067613;28;20032;-71
2022/09/28 04:06:37;;;;;;;3.20;1.40;;;7.80;99.90;;;;;;5061559;28;20052;-71
2022/09/28 04:09:03;;;;;;;1.92;1.15;;;7.80;99.90;;;;;;5071778;28;20406;-71
2022/09/28 04:11:28;;;;;;;3.38;1.83;;;7.80;99.90;;;;;;5061435;28;20415;-70
2022/09/28 04:13:54;;;;;;;4.63;1.85;;;7.90;99.90;;;;;;5060171;28;20232;-71
2022/09/28 04:16:19;;;;;;;5.38;2.20;;;7.90;99.90;;;;;;5055719;28;20036;-71
2022/09/28 04:18:46;;;;;;;5.63;2.63;;;7.80;99.90;;;;;;5097683;27;20135;-71
2022/09/28 04:21:14;;;;;;;2.80;1.55;;;7.90;99.90;;;;;;5068177;28;20051;-70
2022/09/28 04:23:40;;;;;;;3.15;1.52;;;7.90;99.90;;;;;;5074429;28;20236;-70
2022/09/28 04:26:16;;;;;;;5.18;2.70;;;7.90;99.90;;;;;;5089911;27;20048;-71
2022/09/28 04:31:28;;;;;;;4.40;1.85;;;7.90;99.90;;;;;;5064913;28;20036;-70
2022/09/28 04:33:55;;;;;;;2.78;1.55;;;7.90;99.90;;;;;;5100324;27;20111;-70
2022/09/28 04:36:23;;;;;;;4.78;2.00;;;7.90;99.90;;;;;;5056548;28;20051;-70
2022/09/28 04:38:52;;;;;;;4.28;2.03;;;7.90;99.90;;;;;;5092631;27;21470;-70
2022/09/28 04:41:17;;;;;;;7.05;3.05;;;7.90;99.90;;;;;;5064851;28;20532;-70
2022/09/28 04:43:46;;;;;;;4.45;2.70;;;7.90;99.90;;;;;;5065347;28;20068;-70
2022/09/28 04:46:11;;;;;;;3.75;2.25;;;8.00;99.90;;;;;;5052308;28;20040;-70
2022/09/28 04:48:37;;;;;;;4.22;2.00;;;8.00;99.90;;;;;;5060013;28;20044;-70
2022/09/28 04:51:03;;;;;;;5.18;2.55;;;8.00;99.90;;;;;;5069958;28;20036;-70
2022/09/28 04:53:29;;;;;;;4.15;2.65;;;8.10;99.90;;;;;;5053478;28;20043;-70
2022/09/28 04:55:58;;;;;;;4.85;2.42;;;8.10;99.90;;;;;;5058407;28;20036;-70
2022/09/28 04:58:24;;;;;;;5.50;2.38;;;8.10;99.90;;;;;;5072235;28;20049;-70
2022/09/28 05:00:50;;;;;;;4.07;1.63;;;8.10;99.90;;;;;;5088032;28;20434;-70
2022/09/28 05:03:16;;;;;;;4.55;2.10;;;8.10;99.90;;;;;;5043261;28;20124;-70
2022/09/28 05:05:48;;;;;;;4.97;2.20;;;8.10;99.90;;;;;;5063778;28;20040;-70
2022/09/28 05:08:15;;;;;;;5.03;2.60;;;8.10;99.90;;;;;;5060129;28;20166;-70
2022/09/28 05:10:40;;;;;;;11.02;2.70;;;8.20;99.90;;;;;;5071032;28;20037;-71
2022/09/28 05:13:08;;;;;;;5.28;1.98;;;8.20;99.90;;;;;;5068315;28;20042;-71
2022/09/28 05:15:34;;;;;;;5.43;2.45;;;8.20;99.90;;;;;;5071990;28;20498;-70
2022/09/28 05:18:00;;;;;;;3.50;1.75;;;8.20;99.90;;;;;;5046285;28;20517;-70
2022/09/28 05:20:25;;;;;;;4.97;2.45;;;8.20;99.90;;;;;;5093026;27;20040;-70
2022/09/28 05:22:51;;;;;;;3.95;2.05;;;8.20;99.90;;;;;;5040015;28;20065;-70
2022/09/28 05:25:17;;;;;;;3.78;1.88;;;8.20;99.90;;;;;;5046650;28;20219;-70
2022/09/28 05:27:43;;;;;;;5.03;2.10;;;8.20;99.90;;;;;;5045040;28;20063;-70
2022/09/28 05:30:09;;;;;;;4.53;2.45;;;8.10;99.90;;;;;;5085983;27;20040;-70
2022/09/28 05:32:43;;;;;;;4.90;2.35;;;8.10;99.90;;;;;;5066917;28;20032;-71
2022/09/28 05:35:12;;;;;;;4.65;2.38;;;8.10;99.90;;;;;;5043928;28;20530;-71
2022/09/28 05:37:38;;;;;;;4.55;2.05;;;8.10;99.90;;;;;;5070150;28;20032;-72
2022/09/28 05:40:04;;;;;;;4.53;2.13;;;8.10;99.90;;;;;;5091693;27;20209;-74
2022/09/28 05:42:30;;;;;;;7.43;2.85;;;8.10;99.90;;;;;;5052347;28;20268;-71
2022/09/28 05:44:58;;;;;;;4.78;2.40;;;8.10;99.90;;;;;;5093961;27;20040;-71
2022/09/28 05:47:25;;;;;;;4.50;2.13;;;8.10;99.90;;;;;;5053081;28;20075;-71
2022/09/28 05:49:51;;;;;;;5.10;2.55;;;8.10;99.90;;;;;;5041797;28;20033;-71
2022/09/28 05:52:17;;;;;;;4.40;1.90;;;8.00;99.90;;;;;;5065110;28;20044;-72
2022/09/28 05:54:43;;;;;;;5.38;2.25;;;8.00;99.90;;;;;;5058282;28;20041;-71
2022/09/28 05:57:08;;;;;;;4.55;2.20;;;7.90;99.90;;;;;;5074981;28;20050;-72
2022/09/28 05:59:35;;;;;;;3.45;1.70;;;8.00;99.90;;;;;;5067987;28;20040;-71
2022/09/28 06:02:02;;;;;;;5.07;2.13;;;7.90;99.90;;;;;;5056374;28;20033;-71
2022/09/28 06:04:28;;;;;;;7.32;2.95;;;8.00;99.90;;;;;;5049470;28;20045;-71
2022/09/28 06:06:53;;;;;;;4.13;1.80;;;7.90;99.90;;;;;;5065316;28;20052;-72
2022/09/28 06:09:19;;;;;;;3.30;1.85;;;7.90;99.90;;;;;;5094559;27;20072;-72
2022/09/28 06:11:45;;;;;;;6.07;2.28;;;7.90;99.90;;;;;;5053406;28;20497;-75
2022/09/28 06:14:12;;;;;;;4.32;2.05;;;7.90;99.90;;;;;;5048494;28;20033;-68
2022/09/28 06:16:39;;;;;;;4.57;2.53;;;7.90;99.90;;;;;;5044442;28;20498;-72
2022/09/28 06:19:06;;;;;;;4.47;2.22;;;7.90;99.90;;;;;;5044811;28;20049;-72
2022/09/28 06:21:32;;;;;;;3.53;1.85;;;8.00;99.90;;;;;;5056005;28;20033;-72
2022/09/28 06:23:57;;;;;;;4.90;2.28;;;8.00;99.90;;;;;;5048199;28;20594;-72
2022/09/28 06:26:23;;;;;;;4.57;2.22;;;8.00;99.90;;;;;;5079919;28;20517;-72
2022/09/28 06:28:48;;;;;;;3.67;1.85;;;8.10;99.90;;;;;;5060526;28;20249;-72
2022/09/28 06:31:14;;;;;;;7.40;2.35;;;8.10;99.90;;;;;;5060630;28;20043;-72
2022/09/28 06:33:40;;;;;;;2.55;1.50;;;8.10;99.90;;;;;;5070304;28;20028;-72
2022/09/28 06:36:08;;;;;;;3.90;2.05;;;8.20;99.90;;;;;;5074711;28;20114;-72
2022/09/28 06:38:34;;;;;;;3.63;2.00;;;8.20;99.90;;;;;;5070906;28;20111;-72
2022/09/28 06:40:59;;;;;;;6.15;2.33;;;8.20;99.90;;;;;;5069738;28;20584;-72
2022/09/28 06:43:26;;;;;;;4.53;2.38;;;8.20;99.90;;;;;;5078409;28;20096;-72
2022/09/28 06:45:53;;;;;;;5.63;3.22;;;8.30;99.90;;;;;;5073393;28;20072;-72
2022/09/28 06:48:18;;;;;;;6.03;2.50;;;8.30;99.90;;;;;;5074947;28;20048;-72
2022/09/28 06:50:45;;;;;;;3.78;2.10;;;8.40;99.90;;;;;;5063186;28;20085;-72
2022/09/28 06:53:12;;;;;;;4.85;2.53;;;8.40;99.90;;;;;;5065441;28;20562;-72
2022/09/28 06:55:43;;;;;;;3.70;1.85;;;8.40;99.90;;;;;;5078396;28;20501;-72
2022/09/28 06:58:11;;;;;;;4.20;2.13;;;8.40;99.90;;;;;;5078861;28;20036;-72
2022/09/28 07:00:38;;;;;;;4.32;2.00;;;8.50;99.90;;;;;;5065136;28;20122;-72
2022/09/28 07:03:07;;;;;;;4.00;2.03;;;8.50;99.90;;;;;;5071040;28;20037;-72
2022/09/28 07:05:35;;;;;;;5.13;1.95;;;8.50;99.90;;;;;;5071615;28;20093;-72
2022/09/28 07:08:04;;;;;;;4.13;1.90;;;8.50;99.90;;;;;;5056138;28;20063;-72
2022/09/28 07:10:31;;;;;;;4.85;2.60;;;8.50;99.90;;;;;;5075548;28;20393;-72
2022/09/28 07:13:01;;;;;;;5.47;2.47;;;8.50;99.90;;;;;;5055012;28;20485;-72
2022/09/28 07:15:28;;;;;;;4.50;2.13;;;8.50;99.90;;;;;;5065582;28;20501;-72
2022/09/28 07:17:58;;;;;;;5.30;2.30;;;8.40;99.90;;;;;;5057264;28;20047;-72
2022/09/28 07:20:24;;;;;;;3.53;1.80;;;8.40;99.90;;;;;;5109986;27;20085;-72
2022/09/28 07:22:54;;;;;;;5.95;2.40;;;8.40;99.90;;;;;;5054778;28;20048;-72
2022/09/28 07:25:20;;;;;;;5.20;1.80;;;8.40;99.90;;;;;;5045979;28;20060;-72
2022/09/28 07:27:46;;;;;;;5.68;2.17;;;8.40;99.90;;;;;;5077970;28;20627;-72
2022/09/28 07:30:12;;;;;;;4.82;2.05;;;8.40;99.90;;;;;;5058085;28;20632;-72
2022/09/28 07:32:39;;;;;;;4.93;2.33;;;8.40;99.90;;;;;;5074886;28;20119;-72
2022/09/28 07:35:07;;;;;;;4.78;2.00;;;8.40;99.90;;;;;;5070124;28;20175;-72
2022/09/28 07:37:36;;;;;;;4.93;2.13;;;8.50;99.90;;;;;;5074339;28;20097;-72
2022/09/28 07:42:51;;;;;;;4.38;2.25;;;8.40;99.90;;;;;;5066649;28;20043;-72
2022/09/28 07:45:19;;;;;;;5.05;2.20;;;8.50;99.90;;;;;;5076782;28;20047;-72
2022/09/28 07:47:45;;;;;;;4.78;2.00;;;8.50;99.90;;;;;;5068882;28;20040;-72
2022/09/28 07:50:11;;;;;;;6.38;2.63;;;8.50;99.90;;;;;;5070614;28;20044;-72
2022/09/28 07:52:36;;;;;;;4.35;2.38;;;8.50;99.90;;;;;;5059699;28;20509;-72
2022/09/28 07:55:03;;;;;;;4.20;1.98;;;8.40;99.90;;;;;;5065733;28;20135;-72
2022/09/28 07:57:32;;;;;;;6.00;2.25;;;8.40;99.90;;;;;;5051154;28;20064;-72
2022/09/28 07:59:59;;;;;;;4.68;2.35;;;8.50;99.90;;;;;;5069822;28;20055;-72
2022/09/28 08:02:25;;;;;;;5.22;2.15;;;8.50;99.90;;;;;;5065563;28;20032;-72
2022/09/28 08:04:51;;;;;;;5.75;2.70;;;8.50;99.90;;;;;;5052916;28;20132;-72
2022/09/28 08:07:18;;;;;;;4.93;2.03;;;8.50;99.90;;;;;;5066466;28;20311;-72
2022/09/28 08:09:45;;;;;;;4.43;2.00;;;8.60;99.90;;;;;;5071930;28;20028;-72
2022/09/28 08:12:12;;;;;;;3.53;1.58;;;8.50;99.90;;;;;;5051402;28;20094;-72
2022/09/28 08:14:38;;;;;;;4.78;1.80;;;8.60;99.90;;;;;;5042010;28;20479;-72
2022/09/28 08:17:04;;;;;;;5.40;2.15;;;8.60;99.90;;;;;;5051628;28;20036;-72
2022/09/28 08:21:43;;;;;;;5.43;2.13;;;8.60;99.90;;;;;;5071720;28;20079;-72
2022/09/28 08:22:19;;;;;;;5.88;2.45;;;8.60;99.90;;;;;;5079688;28;20094;-72
2022/09/28 08:24:46;;;;;;;4.50;1.92;;;8.70;99.90;;;;;;5069142;28;20048;-72
2022/09/28 08:27:12;;;;;;;4.38;2.00;;;8.70;99.90;;;;;;5073807;28;20186;-72
2022/09/28 08:29:38;;;;;;;6.93;2.78;;;8.80;99.90;;;;;;5061634;28;20532;-73
2022/09/28 08:32:07;;;;;;;4.13;1.80;;;8.80;99.90;;;;;;5074575;28;20181;-72
2022/09/28 08:34:37;;;;;;;3.35;1.38;;;8.90;99.90;;;;;;5061041;28;20048;-72
2022/09/28 08:37:03;;;;;;;6.20;2.33;;;9.00;99.90;;;;;;5076936;28;20832;-72
2022/09/28 08:39:29;;;;;;;6.47;2.53;;;9.00;99.90;;;;;;5074793;28;20188;-72
2022/09/28 08:42:17;;;;;;;4.85;2.38;;;9.10;99.90;;;;;;5067000;28;20131;-72
2022/09/28 08:44:47;;;;;;;4.03;1.73;;;9.20;99.90;;;;;;5051957;28;20041;-72
2022/09/28 08:50:09;;;;;;;5.03;2.28;;;9.40;99.90;;;;;;5060843;28;20041;-72
2022/09/28 08:52:39;;;;;;;4.93;1.92;;;9.40;99.90;;;;;;5069032;28;20036;-72
2022/09/28 08:55:25;;;;;;;5.25;1.88;;;9.50;99.90;;;;;;5102092;27;20036;-72
2022/09/28 08:58:09;;;;;;;;;;;9.60;99.90;;;;;;5043799;28;20064;-72
2022/09/28 09:00:41;;;;;;;4.78;2.05;;;9.60;99.90;;;;;;5064522;28;19924;-72
2022/09/28 09:03:12;;;;;;;6.57;2.80;;;9.70;99.90;;;;;;5044006;28;20036;-72
2022/09/28 09:05:54;;;;;;;5.15;2.42;;;9.70;99.90;;;;;;5039073;28;20572;-72
2022/09/28 09:08:32;;;;;;;4.20;2.00;;;9.80;99.90;;;;;;5075942;28;20048;-72
2022/09/28 09:11:03;;;;;;;4.28;2.15;;;10.00;99.90;;;;;;5072652;28;20483;-72
2022/09/28 09:13:39;;;;;;;4.28;1.90;;;10.00;99.90;;;;;;5073098;27;20708;-73
2022/09/28 09:16:13;;;;;;;5.45;2.47;;;10.10;99.90;;;;;;5052827;28;20039;-73
2022/09/28 09:18:54;;;;;;;4.70;1.92;;;10.20;99.90;;;;;;5060355;28;20048;-73
2022/09/28 09:21:40;;;;;;;5.07;2.28;;;10.20;99.90;;;;;;5063805;28;20045;-73
2022/09/28 09:24:15;;;;;;;4.55;1.65;;;10.20;99.90;;;;;;5054951;28;20132;-73
2022/09/28 09:26:41;;;;;;;5.30;2.20;;;10.20;99.90;;;;;;5053501;28;20044;-74
2022/09/28 09:29:26;;;;;;;3.78;2.08;;;10.20;99.90;;;;;;5052113;28;20086;-73
2022/09/28 09:32:21;;;;;;;5.38;2.25;;;10.20;99.90;;;;;;5065087;28;20041;-73
2022/09/28 09:35:05;;;;;;;7.40;2.30;;;10.20;99.90;;;;;;5035256;28;20098;-73
2022/09/28 09:37:59;;;;;;;7.57;2.28;;;10.20;99.90;;;;;;5059832;28;20036;-72
2022/09/28 09:41:03;;;;;;;5.60;2.50;;;10.30;99.90;;;;;;5062678;28;20043;-73
2022/09/28 09:43:46;;;;;;;4.95;1.98;;;10.40;99.90;;;;;;5063689;28;20186;-72
2022/09/28 09:46:36;;;;;;;5.93;2.20;;;10.40;99.90;;;;;;5077129;28;20047;-72
2022/09/28 09:49:27;;;;;;;4.60;2.20;;;10.50;99.90;;;;;;5066650;28;20502;-73
2022/09/28 09:51:56;;;;;;;3.00;1.70;;;10.50;99.90;;;;;;5097796;27;20032;-73
2022/09/28 09:54:29;;;;;;;5.75;2.20;;;10.50;99.90;;;;;;5054610;28;20059;-73
2022/09/28 09:57:02;;;;;;;3.55;1.42;;;10.50;99.90;;;;;;5067639;28;20126;-73
2022/09/28 09:59:32;;;;;;;7.45;2.58;;;10.50;99.90;;;;;;5069946;28;20391;-73
2022/09/28 10:02:01;;;;;;;5.47;2.00;;;10.60;99.90;;;;;;5054533;28;20028;-73
2022/09/28 10:04:32;;;;;;;4.78;2.22;;;10.60;99.90;;;;;;5064579;28;20109;-72
2022/09/28 10:07:04;;;;;;;3.65;1.65;;;10.60;99.90;;;;;;5073985;28;20637;-70
2022/09/28 10:09:39;;;;;;;3.80;2.20;;;10.70;99.90;;;;;;5065663;28;20046;-73
2022/09/28 10:12:10;;;;;;;4.50;1.95;;;10.70;99.90;;;;;;5081260;28;20045;-72
2022/09/28 10:14:36;;;;;;;4.63;1.75;;;10.80;99.90;;;;;;5092437;27;20043;-72
2022/09/28 10:17:02;;;;;;;5.97;2.17;;;10.90;99.90;;;;;;5067730;28;20040;-72
2022/09/28 10:19:31;;;;;;;4.68;2.20;;;11.00;99.90;;;;;;5069905;28;20047;-73
2022/09/28 10:22:01;;;;;;;4.22;1.42;;;10.90;99.90;;;;;;5065466;28;20045;-72
2022/09/28 10:24:45;;;;;;;3.55;1.70;;;10.90;99.90;;;;;;5086977;28;20048;-72
2022/09/28 10:27:14;;;;;;;4.07;1.60;;;10.90;99.90;;;;;;5072904;28;20050;-73
2022/09/28 10:30:00;;;;;;;5.22;2.15;;;10.90;99.90;;;;;;5087248;28;20036;-73
2022/09/28 10:32:37;;;;;;;3.28;1.60;;;10.90;99.90;;;;;;5075439;28;20040;-72
2022/09/28 10:35:13;;;;;;;2.25;1.02;;;10.90;99.90;;;;;;5072938;28;20048;-72
2022/09/28 10:38:06;;;;;;;3.50;1.85;;;11.00;99.90;;;;;;5064544;28;20060;-72
2022/09/28 10:41:10;;;;;;;1.92;1.00;;;11.10;99.90;;;;;;5074189;28;20269;-72
2022/09/28 10:43:38;;;;;;;3.05;1.20;;;11.20;99.90;;;;;;5051862;28;20049;-72
2022/09/28 10:46:12;;;;;;;3.08;1.45;;;11.30;99.90;;;;;;5086655;28;20050;-72
2022/09/28 10:48:54;;;;;;;2.88;1.08;;;11.40;99.90;;;;;;5056951;28;20425;-72
2022/09/28 10:51:52;;;;;;;3.20;1.15;;;11.40;99.90;;;;;;5067663;28;20302;-72
2022/09/28 10:54:27;;;;;;;3.13;1.42;;;11.50;99.90;;;;;;5053839;28;20052;-72
2022/09/28 10:56:54;;;;;;;3.90;1.83;;;11.60;99.90;;;;;;5055231;28;20032;-72
2022/09/28 10:59:27;;;;;;;3.78;1.15;;;11.60;99.90;;;;;;5072828;28;20513;-72
2022/09/28 11:02:11;;;;;;;2.42;1.17;;;11.60;99.90;;;;;;5073479;28;20413;-72
2022/09/28 11:04:42;;;;;;;2.83;1.17;;;11.60;99.90;;;;;;5065682;28;20494;-73
2022/09/28 11:07:23;;;;;;;2.72;1.33;;;11.60;99.90;;;;;;5067239;28;20513;-72
2022/09/28 11:09:51;;;;;;;1.40;0.52;;;11.50;99.90;;;;;;5072127;28;20036;-72
2022/09/28 11:12:25;;;;;;;2.35;1.00;;;11.50;99.90;;;;;;5076167;28;20410;-72
2022/09/28 11:15:03;;;;;;;1.52;0.82;;;11.40;99.90;;;;;;5071729;28;20390;-72
2022/09/28 11:17:39;;;;;;;2.22;0.93;;;11.40;99.90;;;;;;5068409;28;20043;-72
2022/09/28 11:20:23;;;;;;;2.45;0.82;;;11.40;99.90;;;;;;5094085;27;20048;-72
2022/09/28 11:22:50;;;;;;;1.95;0.70;;;11.30;99.90;;;;;;5062508;28;20045;-77
2022/09/28 11:25:15;;;;;;;1.65;0.70;;;11.30;99.90;;;;;;5056937;28;20498;-72
2022/09/28 11:27:51;;;;;;;2.22;0.95;;;11.30;99.90;;;;;;5061466;28;20218;-72
2022/09/28 11:30:33;;;;;;;;;;;11.30;99.90;;;;;;5064750;28;20126;-72
2022/09/28 11:33:38;;;;;;;2.45;0.77;;;11.30;99.90;;;;;;5056754;28;19917;-73
2022/09/28 11:36:13;;;;;;;1.10;0.68;;;11.40;99.90;;;;;;5052279;27;20056;-73
2022/09/28 11:38:39;;;;;;;1.93;0.87;;;11.40;99.90;;;;;;5097612;27;20044;-73
2022/09/28 11:41:23;;;;;;;2.60;0.98;;;11.50;99.90;;;;;;5059158;28;20339;-73
2022/09/28 11:43:55;;;;;;;1.13;0.68;;;11.60;99.90;;;;;;5072526;28;20484;-73
2022/09/28 11:46:33;;;;;;;1.35;0.60;;;11.70;99.90;;;;;;5091952;28;20048;-72
2022/09/28 11:49:21;;;;;;;3.20;1.27;;;11.80;99.90;;;;;;5064754;28;20028;-72
2022/09/28 11:51:50;;;;;;;3.25;1.15;;;12.00;99.90;;;;;;5095615;27;20048;-73
2022/09/28 11:54:51;;;;;;;1.15;0.50;;;12.10;99.90;;;;;;5070389;28;20060;-73
2022/09/28 11:57:26;;;;;;;1.63;0.75;;;12.20;99.90;;;;;;5040581;28;20257;-73
2022/09/28 11:59:59;;;;;;;1.42;0.50;;;12.30;99.90;;;;;;5063255;28;20059;-72
2022/09/28 12:02:28;;;;;;;1.70;0.50;;;12.30;99.90;;;;;;5068127;28;20079;-72
2022/09/28 12:05:22;;;;;;;0.57;0.35;;;12.40;99.90;;;;;;5057344;28;20064;-72
2022/09/28 12:08:12;;;;;;;2.05;0.63;;;12.40;99.90;;;;;;5045852;28;20032;-72
2022/09/28 12:10:47;;;;;;;1.33;0.60;;;12.40;99.90;;;;;;5059026;28;20128;-72
2022/09/28 12:13:21;;;;;;;3.10;0.63;;;12.50;99.90;;;;;;5042882;28;20509;-72
2022/09/28 12:15:53;;;;;;;1.52;0.60;;;12.40;99.90;;;;;;5087694;28;20048;-72
2022/09/28 12:18:28;;;;;;;1.25;0.52;;;12.40;99.90;;;;;;5095226;27;20490;-72
2022/09/28 12:21:21;;;;;;;0.82;0.35;;;12.30;99.90;;;;;;5064414;28;20045;-72
2022/09/28 12:23:49;;;;;;;0.80;0.30;;;12.20;99.90;;;;;;5064165;28;20563;-72
2022/09/28 12:26:27;;;;;;;0.63;0.30;;;12.10;99.90;;;;;;5058706;28;20471;-72
2022/09/28 12:28:57;;;;;;;0.63;0.30;;;12.00;99.90;;;;;;5085046;28;20060;-72
2022/09/28 12:31:32;;;;;;;2.88;0.55;;;12.00;99.90;;;;;;5071718;28;20124;-72
2022/09/28 12:33:58;;;;;;;1.17;0.35;;;12.00;99.90;;;;;;5047684;28;20048;-72
2022/09/28 12:36:29;;;;;;;0.30;0.30;;;12.00;99.90;;;;;;5038598;28;20439;-72
2022/09/28 12:39:32;;;;;;;1.13;0.60;;;12.00;99.90;;;;;;5052414;28;20041;-72
2022/09/28 12:42:27;;;;;;;0.10;0.10;;;12.00;99.90;;;;;;5048230;28;20049;-72
2022/09/28 12:45:26;;;;;;;0.38;0.20;;;12.10;99.90;;;;;;5094113;28;20097;-72
2022/09/28 12:48:10;;;;;;;0.52;0.30;;;12.20;99.90;;;;;;5056330;28;20347;-72
2022/09/28 12:50:56;;;;;;;0.55;0.22;;;12.20;99.90;;;;;;5065322;28;20486;-72
2022/09/28 12:53:52;;;;;;;0.10;0.10;;;12.30;99.90;;;;;;5038673;28;20036;-72
2022/09/28 12:56:46;;;;;;;1.35;0.40;;;12.40;99.90;;;;;;5059825;28;20561;-72
2022/09/28 12:59:20;;;;;;;0.55;0.20;;;12.40;99.90;;;;;;5038004;28;20442;-72
2022/09/28 13:02:43;;;;;;;1.88;0.38;;;12.50;99.90;;;;;;5054774;28;20408;-72
2022/09/28 13:05:33;;;;;;;0.55;0.10;;;12.50;99.90;;;;;;5034094;28;20114;-72
2022/09/28 13:08:02;;;;;;;1.33;0.30;;;12.50;99.90;;;;;;5055158;28;20069;-72
2022/09/28 13:10:39;;;;;;;0.45;0.10;;;12.60;99.90;;;;;;5064320;28;20099;-72
2022/09/28 13:13:48;;;;;;;0.15;0.15;;;12.60;99.90;;;;;;5053330;28;20575;-72
2022/09/28 13:16:37;;;;;;;0.38;0.25;;;12.60;99.90;;;;;;5053329;28;20040;-73
2022/09/28 13:19:12;;;;;;;0.30;0.20;;;12.70;99.90;;;;;;5091795;27;20548;-72
2022/09/28 13:21:59;;;;;;;0.38;0.28;;;12.70;99.90;;;;;;5053850;28;20518;-72
2022/09/28 13:24:33;;;;;;;0.35;0.20;;;12.80;99.90;;;;;;5073041;28;20060;-72
2022/09/28 13:27:09;;;;;;;0.45;0.22;;;12.80;99.90;;;;;;5067177;28;20048;-72
2022/09/28 13:29:36;;;;;;;0.55;0.30;;;12.90;99.90;;;;;;5069602;28;20155;-72
2022/09/28 13:32:02;;;;;;;0.50;0.30;;;12.90;99.90;;;;;;5038844;28;20486;-72
2022/09/28 13:34:31;;;;;;;0.40;0.30;;;12.80;99.90;;;;;;5088957;27;20120;-73